Yuma MCAS/Yuma International Airport
KNYL : now visible

Airfield :











YOU CAN JOIN US ON...

 
LOGIN :

Register | Disclaimer

   EN    FR    IT 

 









Legend :    VFR   Marginal VFR   IFR   Intensive IFR   Very Intensive IFR
Visi :
Ceiling :
>= 8 km
>= 3000ft
5 to 8 km
1000 to 3000 ft
1500m to 5 km
500 to 1000 ft
800 to 1500m
200 to 500 ft
< 800m
< 200 ft
Symbols :   Thunderstorms  Fog  Heavy snow  Heavy precipitations  Wind > 20 kt






- Airport Elevation : 213 ft
- IATA code : YUM


KNYL - Yuma MCAS/Yuma International

CURRENT METAR :
  • 280957Z AUTO 07005KT 10SM CLR 15/M03 A3012 RMK AO2 SLP198 T01501028 $

EXPIRED METARs :
  • 280857Z AUTO 34004KT 10SM CLR 15/M02 A3014 RMK AO2 SLP203 T01501017 55015 $
  • 280757Z AUTO 07006KT 10SM CLR 17/M04 A3014 RMK AO2 SLP203 T01671044 $

TAF TAF KNYL
Valid from the 28 at 09:00 until the 29 at 09:00 UTC


2809/2909 VRB05KT 9999 BKN200 QNH3005INS
TEMPO 2816/2822 03008KT AUTOMATED SENSOR METWATCH 2809 TIL 2814 T13/2812Z T28/2821Z



MET'MAP, your aeronautical weather chart ! - Copyright ORBIFLY December 2007 - Disclaimer

ORBIFLY MET'MAP TEAM :

Programming & Development : Alexandra Zaïnal
Concept & original design : Baudouin d'Aumeries
Assistance for programming : Marc-Olivier Méhu
Technical & hardware support : Manuel Goepfert

Contact : metmap@orbifly.com




SOURCES & CREDITS :

   NOAA       Earth
Advisory